createdAt,value
2018-11-01T00:02:35.513Z,990.86
2018-11-01T00:12:35.533Z,990.70
2018-11-01T00:22:35.618Z,990.83
2018-11-01T00:32:35.557Z,990.87
2018-11-01T00:42:35.588Z,990.86
2018-11-01T00:52:35.898Z,990.78
2018-11-01T01:02:37.130Z,990.62
2018-11-01T01:12:35.652Z,990.71
2018-11-01T01:22:35.596Z,990.65
2018-11-01T01:32:42.780Z,991.12
2018-11-01T01:42:35.595Z,991.08
2018-11-01T01:52:35.743Z,990.93
2018-11-01T02:02:35.552Z,990.86
2018-11-01T02:12:35.560Z,990.80
2018-11-01T02:22:35.572Z,990.54
2018-11-01T02:32:35.482Z,990.22
2018-11-01T02:42:35.507Z,990.25
2018-11-01T02:52:35.541Z,990.21
2018-11-01T03:02:35.572Z,990.14
2018-11-01T03:12:35.606Z,990.09
2018-11-01T03:22:35.529Z,990.11
2018-11-01T03:32:35.517Z,990.23
2018-11-01T03:42:35.510Z,990.20
2018-11-01T03:52:35.556Z,990.21
2018-11-01T04:02:38.306Z,989.90
2018-11-01T04:12:36.220Z,989.79
2018-11-01T04:22:35.719Z,989.83
2018-11-01T04:32:35.516Z,989.71
2018-11-01T04:42:35.480Z,989.34
2018-11-01T04:52:35.619Z,989.19
2018-11-01T05:02:35.572Z,989.37
2018-11-01T05:12:35.497Z,989.45
2018-11-01T05:22:35.498Z,989.63
2018-11-01T05:32:35.539Z,989.65
2018-11-01T05:42:35.485Z,989.75
2018-11-01T05:52:35.708Z,989.82
2018-11-01T06:02:35.503Z,989.87
2018-11-01T06:12:35.582Z,989.92
2018-11-01T06:22:35.498Z,989.95
2018-11-01T06:32:35.521Z,990.10
2018-11-01T06:42:35.583Z,990.31
2018-11-01T06:52:35.713Z,990.44
2018-11-01T07:02:35.566Z,990.53
2018-11-01T07:12:35.565Z,990.52
2018-11-01T07:22:36.014Z,990.66
2018-11-01T07:32:35.652Z,990.51
2018-11-01T07:42:35.638Z,990.22
2018-11-01T07:52:35.621Z,989.98
2018-11-01T08:02:35.575Z,989.77
2018-11-01T08:12:35.618Z,989.63
2018-11-01T08:22:35.611Z,989.39
2018-11-01T08:32:35.595Z,989.21
2018-11-01T08:42:36.048Z,989.30
2018-11-01T08:52:35.554Z,989.56
2018-11-01T09:02:35.622Z,989.60
2018-11-01T09:12:36.007Z,989.67
2018-11-01T09:22:35.606Z,989.79
2018-11-01T09:32:36.473Z,989.71
2018-11-01T09:42:35.776Z,989.85
2018-11-01T09:52:35.574Z,990.08
2018-11-01T10:02:35.582Z,989.98
2018-11-01T10:12:39.222Z,989.84
2018-11-01T10:22:35.745Z,989.74
2018-11-01T10:32:35.635Z,989.64
2018-11-01T10:42:35.642Z,989.65
2018-11-01T10:52:35.598Z,989.57
2018-11-01T11:02:35.646Z,989.51
2018-11-01T11:12:35.621Z,989.42
2018-11-01T11:22:35.612Z,989.33
2018-11-01T11:32:35.618Z,989.45
2018-11-01T11:42:35.607Z,989.37
2018-11-01T11:52:35.605Z,989.24
2018-11-01T12:02:35.633Z,989.18
2018-11-01T12:12:35.622Z,989.15
2018-11-01T12:22:35.661Z,989.34
2018-11-01T12:32:35.636Z,989.31
2018-11-01T12:42:35.619Z,989.33
2018-11-01T12:52:35.614Z,989.40
2018-11-01T13:02:35.756Z,989.50
2018-11-01T13:12:35.672Z,989.64
2018-11-01T13:22:35.646Z,989.54
2018-11-01T13:32:35.692Z,989.55
2018-11-01T13:42:35.534Z,989.63
2018-11-01T13:52:35.616Z,989.63
2018-11-01T14:02:35.694Z,989.59
2018-11-01T14:12:35.656Z,989.70
2018-11-01T14:22:35.629Z,989.64
2018-11-01T14:32:35.608Z,989.60
2018-11-01T14:42:35.723Z,989.46
2018-11-01T14:52:36.003Z,989.29
2018-11-01T15:02:35.723Z,989.19
2018-11-01T15:12:35.702Z,989.00
2018-11-01T15:22:35.593Z,988.94
2018-11-01T15:32:35.574Z,989.05
2018-11-01T15:42:35.631Z,988.99
2018-11-01T15:52:35.615Z,988.80
2018-11-01T16:02:38.542Z,988.71
2018-11-01T16:12:35.542Z,988.81
2018-11-01T16:22:35.575Z,989.09
2018-11-01T16:32:35.492Z,989.09
2018-11-01T16:42:35.514Z,989.27
2018-11-01T16:52:35.499Z,989.25
2018-11-01T17:02:35.541Z,989.18
2018-11-01T17:12:35.719Z,989.14
2018-11-01T17:22:35.592Z,989.26
2018-11-01T17:32:35.576Z,989.33
2018-11-01T17:42:35.460Z,989.47
2018-11-01T17:52:35.494Z,989.52
2018-11-01T18:02:35.484Z,989.63
2018-11-01T18:12:35.462Z,989.58
2018-11-01T18:22:35.462Z,989.54
2018-11-01T18:32:35.534Z,989.58
2018-11-01T18:42:36.570Z,989.77
2018-11-01T18:52:35.510Z,989.85
2018-11-01T19:02:35.487Z,989.79
2018-11-01T19:12:35.448Z,989.89
2018-11-01T19:22:35.494Z,989.90
2018-11-01T19:32:35.545Z,990.05
2018-11-01T19:42:35.484Z,990.16
2018-11-01T19:52:35.533Z,990.33
2018-11-01T20:02:35.394Z,990.39
2018-11-01T20:12:35.914Z,990.43
2018-11-01T20:22:35.553Z,990.40
2018-11-01T20:32:35.461Z,990.71
2018-11-01T20:42:35.445Z,990.78
2018-11-01T20:52:35.571Z,990.87
2018-11-01T21:02:35.572Z,991.16
2018-11-01T21:12:35.608Z,991.14
2018-11-01T21:22:36.260Z,991.21
2018-11-01T21:32:35.503Z,991.44
2018-11-01T21:42:35.561Z,991.42
2018-11-01T21:52:35.384Z,991.51
2018-11-01T22:02:35.527Z,991.48
2018-11-01T22:12:35.528Z,991.64
2018-11-01T22:22:35.529Z,991.75
2018-11-01T22:32:35.429Z,991.94
2018-11-01T22:42:35.469Z,991.98
2018-11-01T22:52:35.397Z,992.14
2018-11-01T23:02:35.986Z,992.10
2018-11-01T23:12:35.487Z,992.22
2018-11-01T23:22:35.513Z,992.27
2018-11-01T23:32:35.467Z,992.38
2018-11-01T23:42:35.454Z,992.45
2018-11-01T23:52:35.452Z,992.70
